Weather search by city/station or by Location Indicator (LI)

Please do one of the following:
a) Search the weather station by station, city or country name and click Search button
b) Enter the four-character Location Indicator (i.e. EFHK = Helsinki) and click Submit button

a) Search the station:   

b) Location Indicator:  

The ICAO Location Indicator code is explained here.

METAR = EFHK 262320Z 32006KT CAVOK 10/03 Q1027 NOSIG

STATIONEFHK
NAMEHelsinki/Vantaa Arpt, --, FI
OBSERVED27.05.2020 02:20 (26.05.2020 23:20 UTC), 27 min ago
TEMPERATURE10.0°C ( 50°F)
WINDCHILL8.4 °C (47 °F)
WINDNW (320 degrees) at 7 MPH (6 knots; 3.1 m/s)
HUMIDITY62%
PRESSURE1026.8 hPa